ADDS METAR Data INFO
IDs: Format: Raw Decoded Include TAF

Data at: 0401 UTC 11 Dec 2017

KSBD 110350Z 05004KT 7SM OVC150 14/M11 A3019
KSBD 110250Z 00000KT 7SM OVC150 18/M10 A3017
KSBD 110150Z 00000KT 7SM OVC150 17/M09 A3015
KSBD 110050Z 00000KT 10SM OVC150 22/M12 A3014
KSBD 102350Z 00000KT 10SM OVC150 24/M12 A3012
KSBD 102250Z 00000KT 10SM OVC150 22/M11 A3012
KSBD 102050Z 00000KT 10SM OVC150 26/M11 A3015
KSBD 101850Z 00000KT 10SM OVC150 22/M11 A3021
KSBD 101750Z 00000KT 10SM BKN150 19/-09 A3023
KSBD 101650Z 00000KT 10SM BKN150 15/-11 A3024
KSBD 101550Z 06006KT 10SM BKN150 08/-13 A3023
KSBD 101450Z 07004KT 10SM BKN150 08/-12 A3022
KSBD 101340Z AUTO 06006KT 10SM CLR 07/M12 A3022 RMK AO2 T00701120
KSBD 101320Z AUTO 06005KT 10SM CLR 09/M11 A3022 RMK AO2 T00871109
KSBD 101300Z AUTO 00000KT 10SM CLR 07/M12 A3021 RMK AO2 T00711118
KSBD 101240Z AUTO 08004KT 10SM CLR 08/M13 A3021 RMK AO2 T00771126
KSBD 101220Z AUTO 07003KT 10SM CLR 07/M13 A3021 RMK AO2 T00741129
KSBD 101200Z AUTO 08004KT 10SM CLR 09/M12 A3021 RMK AO2 T00871124
KSBD 101140Z AUTO 06003KT 10SM CLR 08/M12 A3021 RMK AO2 T00831124
KSBD 101120Z AUTO 07006KT 10SM CLR 09/M12 A3022 RMK AO2 T00911116
KSBD 101100Z AUTO 05004KT 10SM CLR 08/M11 A3022 RMK AO2 T00761107
KSBD 101040Z AUTO 00000KT 10SM CLR 10/M10 A3022 RMK AO2 T00981105
KSBD 101020Z AUTO 08005KT 10SM CLR 08/M11 A3022 RMK AO2 T00811113
KSBD 101000Z AUTO 07004KT 10SM CLR 08/M11 A3022 RMK AO2 T00841111
KSBD 100940Z AUTO 00000KT 10SM CLR 10/M11 A3023 RMK AO2 T01011112
KSBD 100920Z AUTO 00000KT 10SM CLR 10/M12 A3023 RMK AO2 T01041117
KSBD 100900Z AUTO 07004KT 10SM CLR 10/M13 A3023 RMK AO2 T00991127
KSBD 100840Z AUTO 06006KT 10SM CLR 10/M11 A3023 RMK AO2 T01001111
KSBD 100820Z AUTO 15003KT 10SM CLR 13/M11 A3023 RMK AO2 T01331110
KSBD 100800Z AUTO 00000KT 10SM CLR 11/M13 A3023 RMK AO2 T01051129
KSBD 100740Z AUTO 12003KT 10SM CLR 12/M13 A3024 RMK AO2 T01191128
KSBD 100720Z AUTO 00000KT 10SM CLR 11/M11 A3024 RMK AO2 T01121111
KSBD 100700Z AUTO 10005KT 10SM CLR 10/M11 A3024 RMK AO2 T01011113
KSBD 100640Z AUTO 05006KT 10SM CLR 11/M10 A3024 RMK AO2 T01061101
KSBD 100620Z AUTO 07005KT 10SM CLR 10/M10 A3024 RMK AO2 T01011099
KSBD 100600Z AUTO 00000KT 10SM CLR 11/M09 A3024 RMK AO2 T01131094
KSBD 100540Z AUTO 12005KT 10SM CLR 11/M10 A3024 RMK AO2 T01141097
KSBD 100450Z 00000KT 10SM BKN150 15/M10 A3023 RMK LAST
KSBD 100350Z 07006KT 10SM BKN150 14/M11 A3022
KSBD 100250Z 12006KT 10SM BKN150 18/M10 A3021
KSBD 100150Z 16003KT 10SM BKN150 21/M11 A3020
KSBD 100050Z 16006KT 10SM BKN150 24/M12 A3018
KSBD 092350Z 29006KT 10SM BKN150 24/-11 A3016
KSBD 092250Z 30006KT 10SM BKN150 28/-11 A3017
KSBD 092150Z 29008KT 10SM BKN150 28/M11 A3017
KSBD 092050Z 32003KT 10SM BKN150 27/M11 A3019
KSBD 091950Z 00000KT 10SM BKN150 25/-12 A3023
KSBD 091850Z 00000KT 10SM BKN150 23/-09 A3026
KSBD 091750Z 00000KT 10SM BKN150 20/-11 A3028
KSBD 091650Z 00000KT 10SM BKN150 14/-10 A3029